KGVT

Majors Airport

Greenville, Texas, USA
METAR KGVT 171455Z AUTO 00000KT 10SM CLR 07/04 A3027 RMK AO2
Observed Flight Rules
Dec-17 @ 14:55 UTC (26 minutes ago) Visual Flight Rules
Visibility Clouds
10 miles
  • Clear skies
Temperatures Readings
Current 7°C / 45°F
Dewpoint 4°C / 39°F
Humidity 81%
Altimeter 30.27" Hg
Pressure 1025 hPa
Elevation 163
METAR KGVT 171455Z AUTO 00000KT 10SM CLR 07/04 A3027 RMK AO2
Observed Flight Rules
Dec-17 @ 14:55 UTC
(26 minutes ago)
VFR
Clouds
  • Clear skies
Temperature Dewpoint
7°C / 45°F 4°C / 39°F
Humidity Altimeter Pressure
81% 30.27" Hg 1025 hPa